Time;durP1;ratioP1;P1;durP2;ratioP2;P2;SDS_P1;SDS_P2;PMS_P1;PMS_P2;Temp;Humidity;BMP_temperature;BMP_pressure;BME280_temperature;BME280_humidity;BME280_pressure;Samples;Min_cycle;Max_cycle;Signal;HPM_P1;HPM_P2
2023/07/24 00:02:08;;;;;;;12.30;5.65;;;;;;;29.88;52.49;98826.91;4898226;29;20040;-78
2023/07/24 00:04:33;;;;;;;13.82;6.18;;;;;;;29.87;52.49;98822.53;4898334;29;20021;-78
2023/07/24 00:07:02;;;;;;;9.82;6.03;;;;;;;29.87;52.80;98835.97;4898419;29;20442;-79
2023/07/24 00:09:27;;;;;;;11.13;5.88;;;;;;;29.85;52.98;98832.63;4898138;29;20059;-77
2023/07/24 00:11:53;;;;;;;11.30;5.60;;;;;;;29.84;52.66;98831.81;4897480;29;20024;-79
2023/07/24 00:14:18;;;;;;;9.38;5.57;;;;;;;29.83;53.37;98840.03;4897666;29;20033;-78
2023/07/24 00:16:44;;;;;;;10.25;6.07;;;;;;;29.82;52.64;98839.16;4897960;29;20112;-78
2023/07/24 00:19:09;;;;;;;14.43;6.38;;;;;;;29.80;53.29;98829.59;4898387;29;20116;-78
2023/07/24 00:21:34;;;;;;;10.52;6.57;;;;;;;29.80;52.89;98829.59;4898464;29;20733;-79
2023/07/24 00:24:00;;;;;;;8.73;6.10;;;;;;;29.77;53.21;98830.75;4897739;29;20024;-78
2023/07/24 00:26:25;;;;;;;10.40;6.20;;;;;;;29.78;53.48;98820.84;4898291;29;20024;-79
2023/07/24 00:28:51;;;;;;;11.43;6.30;;;;;;;29.77;53.18;98813.81;4897466;29;20594;-78
2023/07/24 00:31:16;;;;;;;11.77;6.03;;;;;;;29.76;53.36;98817.50;4897726;29;20450;-79
2023/07/24 00:33:41;;;;;;;11.55;5.43;;;;;;;29.73;53.22;98811.44;4887350;29;20040;-78
2023/07/24 00:36:07;;;;;;;11.57;6.15;;;;;;;29.72;53.06;98817.81;4893483;29;20092;-78
2023/07/24 00:38:32;;;;;;;9.73;5.65;;;;;;;29.71;53.14;98820.69;4897644;29;20500;-78
2023/07/24 00:40:58;;;;;;;9.65;5.60;;;;;;;29.68;53.20;98821.84;4897510;29;20032;-78
2023/07/24 00:43:23;;;;;;;9.00;5.55;;;;;;;29.70;53.30;98840.50;4897091;29;20031;-77
2023/07/24 00:45:49;;;;;;;10.27;6.00;;;;;;;29.67;53.36;98841.69;4891657;29;20029;-78
2023/07/24 00:48:14;;;;;;;10.25;5.68;;;;;;;29.67;53.12;98840.84;4886314;29;20041;-78
2023/07/24 00:50:42;;;;;;;9.10;5.88;;;;;;;29.68;53.07;98837.97;4897698;29;20093;-78
2023/07/24 00:53:08;;;;;;;9.43;5.57;;;;;;;29.66;53.17;98826.56;4896005;29;20029;-79
2023/07/24 00:55:33;;;;;;;9.57;5.80;;;;;;;29.66;53.24;98837.31;4897589;29;20024;-79
2023/07/24 00:58:00;;;;;;;10.20;6.20;;;;;;;29.65;53.01;98822.19;4895876;29;20028;-78
2023/07/24 01:00:25;;;;;;;9.88;5.45;;;;;;;29.63;53.01;98821.50;4897484;29;20497;-78
2023/07/24 01:02:51;;;;;;;11.60;6.30;;;;;;;29.63;53.31;98813.44;4897347;29;20027;-79
2023/07/24 01:05:17;;;;;;;9.88;5.45;;;;;;;29.61;53.48;98810.09;4896997;29;20114;-78
2023/07/24 01:07:43;;;;;;;9.15;5.95;;;;;;;29.60;52.97;98801.16;4897226;29;20032;-79
2023/07/24 01:10:08;;;;;;;11.68;5.82;;;;;;;29.61;53.71;98804.72;4896779;29;20048;-78
2023/07/24 01:12:50;;;;;;;13.20;6.47;;;;;;;29.60;53.67;98803.03;4884236;29;20028;-79
2023/07/24 01:15:40;;;;;;;9.02;6.00;;;;;;;29.60;53.35;98803.03;4897387;29;20096;-79
2023/07/24 01:18:10;;;;;;;11.02;5.60;;;;;;;29.59;53.57;98801.34;4897237;29;20025;-78
2023/07/24 01:20:45;;;;;;;9.02;5.80;;;;;;;29.60;53.09;98811.91;4897126;29;20043;-79
2023/07/24 01:23:15;;;;;;;10.57;6.47;;;;;;;29.59;53.81;98809.44;4897003;29;20037;-79
2023/07/24 01:25:56;;;;;;;10.90;6.35;;;;;;;29.58;53.15;98810.44;4895008;29;20092;-78
2023/07/24 01:28:22;;;;;;;10.52;5.80;;;;;;;29.57;53.48;98803.34;4886222;29;20481;-78
2023/07/24 01:30:47;;;;;;;10.40;6.28;;;;;;;29.58;53.78;98807.75;4897185;29;20028;-78
2023/07/24 01:33:14;;;;;;;9.40;5.65;;;;;;;29.56;54.23;98809.75;4890704;29;20037;-79
2023/07/24 01:35:45;;;;;;;9.60;5.70;;;;;;;29.54;53.68;98823.34;4886891;29;20036;-79
2023/07/24 01:38:13;;;;;;;10.02;6.28;;;;;;;29.54;53.77;98820.66;4886741;29;20036;-79
2023/07/24 01:40:42;;;;;;;11.30;6.40;;;;;;;29.52;53.68;98828.06;4896607;29;20061;-78
2023/07/24 01:43:08;;;;;;;9.90;6.28;;;;;;;29.53;53.55;98834.28;4895793;29;20029;-78
2023/07/24 01:45:35;;;;;;;10.00;5.88;;;;;;;29.52;53.91;98844.19;4897351;29;20079;-78
2023/07/24 01:48:01;;;;;;;9.27;6.05;;;;;;;29.51;53.94;98838.97;4897033;29;20036;-79
2023/07/24 01:50:27;;;;;;;8.68;6.13;;;;;;;29.49;53.40;98844.53;4897156;29;20020;-79
2023/07/24 01:52:52;;;;;;;9.00;5.60;;;;;;;29.48;53.43;98843.66;4894266;29;20152;-79
2023/07/24 01:55:18;;;;;;;8.55;5.05;;;;;;;29.47;53.32;98843.78;4879046;29;20116;-80
2023/07/24 01:57:43;;;;;;;7.07;5.13;;;;;;;29.46;53.16;98839.44;4897150;29;20115;-79
2023/07/24 02:00:09;;;;;;;9.40;5.65;;;;;;;29.43;53.12;98839.75;4895685;29;20037;-79
2023/07/24 02:02:35;;;;;;;7.03;4.85;;;;;;;29.39;53.24;98847.28;4896991;29;20516;-78
2023/07/24 02:05:00;;;;;;;7.72;5.60;;;;;;;29.38;53.15;98848.31;4896717;29;20036;-79
2023/07/24 02:07:25;;;;;;;8.32;5.40;;;;;;;29.36;52.90;98847.63;4896743;29;20029;-78
2023/07/24 02:09:51;;;;;;;8.63;5.35;;;;;;;29.36;52.97;98842.28;4896244;29;20057;-78
2023/07/24 02:12:16;;;;;;;9.27;5.22;;;;;;;29.33;52.80;98846.13;4896510;29;20092;-79
2023/07/24 02:14:41;;;;;;;8.50;5.80;;;;;;;29.31;52.81;98847.28;4896336;29;20061;-79
2023/07/24 02:17:07;;;;;;;6.78;5.32;;;;;;;29.30;52.59;98850.97;4896763;29;20038;-78
2023/07/24 02:19:32;;;;;;;8.40;5.70;;;;;;;29.27;52.75;98845.91;4891381;29;20128;-78
2023/07/24 02:21:58;;;;;;;8.38;5.97;;;;;;;29.27;52.43;98845.91;4890524;29;20035;-78
2023/07/24 02:24:23;;;;;;;8.13;5.40;;;;;;;29.26;52.54;98855.00;4890481;29;20029;-78
2023/07/24 02:26:49;;;;;;;9.50;5.97;;;;;;;29.24;52.61;98851.63;4880027;29;20052;-79
2023/07/24 02:29:14;;;;;;;7.20;5.80;;;;;;;29.23;52.57;98841.91;4887389;29;20037;-77
2023/07/24 02:31:39;;;;;;;7.82;5.68;;;;;;;29.24;52.58;98847.09;4896158;29;20031;-78
2023/07/24 02:34:05;;;;;;;7.57;6.00;;;;;;;29.21;52.72;98853.63;4896960;29;20028;-78
2023/07/24 02:36:31;;;;;;;7.95;6.35;;;;;;;29.20;53.02;98846.56;4892904;29;20450;-78
2023/07/24 02:38:56;;;;;;;8.45;5.95;;;;;;;29.18;52.96;98840.53;4891553;29;20481;-78
2023/07/24 02:41:21;;;;;;;8.00;5.65;;;;;;;29.18;53.13;98843.22;4900115;29;20370;-77
2023/07/24 02:43:47;;;;;;;7.88;6.38;;;;;;;29.18;53.04;98840.53;4900221;29;20148;-77
2023/07/24 02:46:12;;;;;;;8.13;6.65;;;;;;;29.18;53.13;98840.53;4895265;29;20032;-78
2023/07/24 02:48:37;;;;;;;7.55;5.55;;;;;;;29.16;52.68;98847.94;4890022;29;20115;-78
2023/07/24 02:51:03;;;;;;;8.57;6.43;;;;;;;29.15;53.20;98854.28;4899938;29;20035;-78
2023/07/24 02:53:28;;;;;;;8.60;6.28;;;;;;;29.14;53.15;98857.97;4899414;29;20474;-78
2023/07/24 02:55:54;;;;;;;7.75;6.38;;;;;;;29.14;53.23;98849.91;4885552;29;20036;-79
2023/07/24 02:58:19;;;;;;;7.45;6.25;;;;;;;29.14;53.29;98843.72;4892636;29;20092;-78
2023/07/24 03:00:45;;;;;;;8.20;6.05;;;;;;;29.12;53.37;98859.13;4899941;29;20028;-78
2023/07/24 03:03:10;;;;;;;6.95;5.32;;;;;;;29.11;52.97;98858.31;4899634;29;20036;-78
2023/07/24 03:05:36;;;;;;;8.00;6.18;;;;;;;29.12;53.25;98859.13;4899687;29;20032;-78
2023/07/24 03:08:01;;;;;;;7.20;5.85;;;;;;;29.10;52.82;98856.59;4898996;29;20020;-78
2023/07/24 03:10:27;;;;;;;6.85;5.60;;;;;;;29.10;52.95;98859.28;4899588;29;20509;-78
2023/07/24 03:12:52;;;;;;;8.23;5.65;;;;;;;29.09;53.01;98860.28;4899464;29;20386;-79
2023/07/24 03:15:18;;;;;;;7.60;5.60;;;;;;;29.10;52.89;98867.34;4899653;29;20613;-78
2023/07/24 03:17:44;;;;;;;8.50;6.32;;;;;;;29.09;52.79;98871.03;4898408;29;20040;-78
2023/07/24 03:20:18;;;;;;;6.63;5.85;;;;;;;29.04;53.13;98862.63;4898972;29;20037;-78
2023/07/24 03:22:45;;;;;;;6.60;5.20;;;;;;;29.03;53.32;98866.31;4898867;29;20490;-78
2023/07/24 03:25:10;;;;;;;8.32;5.35;;;;;;;29.02;53.12;98870.00;4898887;29;20036;-78
2023/07/24 03:27:36;;;;;;;7.15;5.13;;;;;;;29.02;53.00;98870.00;4899109;29;20084;-76
2023/07/24 03:30:03;;;;;;;7.82;5.35;;;;;;;29.02;52.71;98870.00;4894887;29;20040;-78
2023/07/24 03:32:29;;;;;;;7.15;5.13;;;;;;;29.01;53.00;98869.16;4890854;29;20033;-78
2023/07/24 03:34:54;;;;;;;7.00;5.03;;;;;;;28.97;52.65;98872.34;4899274;29;20033;-79
2023/07/24 03:37:19;;;;;;;7.55;5.30;;;;;;;28.98;52.66;98874.00;4898717;29;20040;-78
2023/07/24 03:39:45;;;;;;;7.72;5.22;;;;;;;28.97;52.60;98877.72;4897843;29;20032;-79
2023/07/24 03:42:13;;;;;;;10.13;5.38;;;;;;;28.96;52.44;98878.72;4898997;29;20549;-78
2023/07/24 03:44:40;;;;;;;7.53;4.90;;;;;;;28.93;52.57;98880.72;4884122;29;20442;-78
2023/07/24 03:47:06;;;;;;;6.68;5.18;;;;;;;28.91;52.46;98882.72;4898794;29;20082;-78
2023/07/24 03:49:31;;;;;;;7.75;5.05;;;;;;;28.93;52.22;98893.31;4898916;29;20040;-78
2023/07/24 03:51:56;;;;;;;9.60;5.32;;;;;;;28.91;52.31;98889.94;4898388;29;20033;-78
2023/07/24 03:54:22;;;;;;;6.88;5.18;;;;;;;28.91;52.19;98885.41;4898856;29;20040;-78
2023/07/24 03:56:47;;;;;;;6.72;4.78;;;;;;;28.86;52.50;98886.84;4898752;29;20060;-78
2023/07/24 03:59:13;;;;;;;7.40;4.60;;;;;;;28.84;52.14;98884.31;4898288;29;20477;-79
2023/07/24 04:01:38;;;;;;;6.88;4.82;;;;;;;28.86;52.28;98889.53;4881828;29;20465;-78
2023/07/24 04:04:03;;;;;;;6.85;4.97;;;;;;;28.84;52.02;98889.69;4890649;29;20029;-78
2023/07/24 04:06:29;;;;;;;6.18;4.70;;;;;;;28.82;51.97;98889.03;4898251;29;20156;-77
2023/07/24 04:08:54;;;;;;;6.30;4.68;;;;;;;28.80;51.78;98888.31;4889176;29;20127;-78
2023/07/24 04:11:20;;;;;;;5.85;4.70;;;;;;;28.81;51.86;98903.47;4898554;29;20033;-79
2023/07/24 04:13:45;;;;;;;7.82;4.75;;;;;;;28.80;51.48;98899.06;4898527;29;20025;-79
2023/07/24 04:16:10;;;;;;;6.05;4.53;;;;;;;28.77;51.64;98899.41;4898155;29;20053;-79
2023/07/24 04:18:36;;;;;;;7.85;4.65;;;;;;;28.75;51.31;98896.00;4896560;29;20032;-78
2023/07/24 04:21:01;;;;;;;5.82;4.30;;;;;;;28.76;51.25;98897.72;4898008;29;20025;-78
2023/07/24 04:23:27;;;;;;;5.93;4.00;;;;;;;28.72;51.28;98896.34;4898373;29;20020;-78
2023/07/24 04:25:52;;;;;;;7.32;4.75;;;;;;;28.71;51.24;98900.03;4898038;29;20024;-79
2023/07/24 04:28:17;;;;;;;7.40;4.70;;;;;;;28.68;51.44;98895.81;4887331;29;20025;-78
2023/07/24 04:30:43;;;;;;;6.82;4.43;;;;;;;28.68;51.34;98890.44;4898153;29;20025;-79
2023/07/24 04:33:08;;;;;;;7.50;4.70;;;;;;;28.67;51.03;98894.13;4897758;29;20103;-79
2023/07/24 04:35:34;;;;;;;6.97;4.30;;;;;;;28.65;51.15;98891.59;4897506;29;20047;-78
2023/07/24 04:37:59;;;;;;;5.57;4.03;;;;;;;28.63;51.29;98893.63;4897934;29;20076;-78
2023/07/24 04:40:24;;;;;;;6.30;4.18;;;;;;;28.63;50.88;98904.34;4897991;29;20482;-78
2023/07/24 04:42:50;;;;;;;7.05;5.00;;;;;;;28.62;50.94;98897.28;4897748;29;20466;-78
2023/07/24 04:45:15;;;;;;;6.43;4.30;;;;;;;28.61;51.12;98900.13;4897888;29;20029;-78
2023/07/24 04:47:41;;;;;;;6.97;4.72;;;;;;;28.61;51.03;98900.97;4897675;29;20024;-78
2023/07/24 04:50:07;;;;;;;6.85;4.50;;;;;;;28.60;51.17;98903.81;4897388;29;20031;-78
2023/07/24 04:52:33;;;;;;;7.05;4.97;;;;;;;28.58;51.11;98901.28;4887378;29;20029;-79
2023/07/24 04:54:58;;;;;;;7.22;4.50;;;;;;;28.53;50.83;98904.44;4890549;29;20086;-78
2023/07/24 04:57:23;;;;;;;7.15;4.50;;;;;;;28.54;50.69;98907.97;4897433;29;20560;-79
2023/07/24 04:59:50;;;;;;;6.15;4.55;;;;;;;28.54;50.66;98916.03;4897614;29;20057;-78
2023/07/24 05:02:15;;;;;;;7.95;4.97;;;;;;;28.54;50.80;98918.69;4897364;29;20489;-78
2023/07/24 05:04:41;;;;;;;5.97;4.45;;;;;;;28.53;50.84;98908.97;4895801;29;20721;-78
2023/07/24 05:07:07;;;;;;;5.78;4.47;;;;;;;28.52;50.73;98918.03;4886129;29;20057;-78
2023/07/24 05:09:32;;;;;;;6.20;4.95;;;;;;;28.51;50.78;98916.31;4897507;29;20057;-78
2023/07/24 05:11:57;;;;;;;7.28;5.00;;;;;;;28.50;50.83;98925.38;4897450;29;20036;-78
2023/07/24 05:14:23;;;;;;;7.85;4.88;;;;;;;28.49;50.59;98923.69;4895750;29;20123;-78
2023/07/24 05:16:48;;;;;;;7.28;4.90;;;;;;;28.47;50.56;98920.34;4897426;29;20017;-78
2023/07/24 05:19:14;;;;;;;7.18;4.57;;;;;;;28.43;50.72;98919.81;4897155;29;20453;-78
2023/07/24 05:21:39;;;;;;;7.28;4.65;;;;;;;28.46;50.37;98926.69;4896190;29;20108;-78
2023/07/24 05:24:05;;;;;;;6.47;4.38;;;;;;;28.45;50.76;98920.47;4897020;29;20043;-79
2023/07/24 05:26:30;;;;;;;6.82;4.60;;;;;;;28.47;50.38;98920.34;4896718;29;20079;-78
2023/07/24 05:28:55;;;;;;;6.63;4.78;;;;;;;28.46;50.47;98934.75;4892509;29;20079;-78
2023/07/24 05:31:21;;;;;;;6.32;4.22;;;;;;;28.46;50.45;98929.38;4897036;29;20063;-78
2023/07/24 05:33:46;;;;;;;6.93;4.45;;;;;;;28.44;50.24;98931.38;4896696;29;20020;-78
2023/07/24 05:36:12;;;;;;;6.95;5.03;;;;;;;28.45;50.31;98923.16;4897142;29;20029;-79
2023/07/24 05:38:37;;;;;;;7.20;4.82;;;;;;;28.44;50.16;98931.38;4897061;29;20089;-78
2023/07/24 05:41:03;;;;;;;6.28;4.57;;;;;;;28.44;50.49;98936.72;4886730;29;20107;-78
2023/07/24 05:43:30;;;;;;;6.72;4.65;;;;;;;28.41;50.42;98930.69;4886035;29;20031;-79
2023/07/24 05:45:57;;;;;;;7.10;4.63;;;;;;;28.43;50.47;98940.41;4896902;29;20017;-79
2023/07/24 05:48:23;;;;;;;6.70;4.68;;;;;;;28.41;50.75;98944.09;4896955;29;20032;-79
2023/07/24 05:50:49;;;;;;;6.90;4.53;;;;;;;28.40;50.43;98942.41;4897148;29;20017;-78
2023/07/24 05:53:15;;;;;;;7.82;5.22;;;;;;;28.40;50.38;98942.41;4897048;29;20027;-78
2023/07/24 05:55:42;;;;;;;6.88;4.57;;;;;;;28.41;50.23;98953.97;4896646;29;20117;-78
2023/07/24 05:58:07;;;;;;;6.57;4.47;;;;;;;28.39;50.24;98955.97;4893359;29;20029;-79
2023/07/24 06:00:33;;;;;;;6.38;4.47;;;;;;;28.38;50.65;98944.41;4886261;29;20055;-77
2023/07/24 06:02:58;;;;;;;7.68;4.55;;;;;;;28.35;50.29;98955.47;4896635;29;20108;-78
2023/07/24 06:05:24;;;;;;;7.32;4.53;;;;;;;28.35;50.66;98950.09;4896765;29;20029;-79
2023/07/24 06:07:49;;;;;;;6.70;4.13;;;;;;;28.34;50.73;98948.41;4896913;29;20397;-78
2023/07/24 06:10:15;;;;;;;7.30;4.05;;;;;;;28.35;50.49;98939.34;4899207;29;20052;-79
2023/07/24 06:12:40;;;;;;;5.50;4.10;;;;;;;28.33;50.54;98944.00;4900187;29;20469;-78
2023/07/24 06:15:06;;;;;;;6.47;4.68;;;;;;;28.31;50.62;98939.84;4900189;29;20120;-79
2023/07/24 06:17:32;;;;;;;6.65;4.53;;;;;;;28.33;50.60;98940.50;4893789;29;20541;-78
2023/07/24 06:19:58;;;;;;;6.43;4.18;;;;;;;28.35;50.61;98944.72;4891643;29;20084;-78
2023/07/24 06:22:23;;;;;;;6.80;4.32;;;;;;;28.32;50.46;98945.03;4900601;29;20379;-78
2023/07/24 06:24:49;;;;;;;6.43;4.10;;;;;;;28.31;50.74;98948.69;4900376;29;20500;-79
2023/07/24 06:27:14;;;;;;;6.30;4.28;;;;;;;28.31;50.47;98947.88;4900479;29;20538;-78
2023/07/24 06:29:40;;;;;;;5.90;4.35;;;;;;;28.30;50.58;98948.84;4900222;29;20096;-79
2023/07/24 06:32:06;;;;;;;7.10;4.60;;;;;;;28.30;50.35;98957.75;4891551;29;20044;-78
2023/07/24 06:34:31;;;;;;;5.53;4.30;;;;;;;28.30;50.78;98959.59;4898595;29;20449;-79
2023/07/24 06:36:57;;;;;;;6.50;4.50;;;;;;;28.30;50.60;98965.81;4899456;29;20037;-79
2023/07/24 06:39:22;;;;;;;6.53;4.53;;;;;;;28.27;50.84;98966.09;4900126;29;20039;-79
2023/07/24 06:41:48;;;;;;;6.30;4.45;;;;;;;28.28;50.71;98970.50;4899887;29;20051;-79
2023/07/24 06:44:13;;;;;;;7.65;4.30;;;;;;;28.29;50.51;98972.16;4898323;29;20498;-79
2023/07/24 06:46:38;;;;;;;6.68;4.38;;;;;;;28.26;50.69;98975.16;4886035;29;20025;-79
2023/07/24 06:49:04;;;;;;;7.80;4.72;;;;;;;28.27;50.40;98974.13;4900012;29;20509;-79
2023/07/24 06:51:29;;;;;;;7.60;4.65;;;;;;;28.26;50.54;98969.78;4900176;29;20050;-79
2023/07/24 06:53:55;;;;;;;6.25;4.40;;;;;;;28.27;50.33;98976.81;4899947;29;20119;-78
2023/07/24 06:56:20;;;;;;;7.88;4.40;;;;;;;28.24;50.47;98966.41;4899865;29;20039;-79
2023/07/24 06:58:45;;;;;;;7.55;4.85;;;;;;;28.25;50.45;98965.41;4899754;29;20029;-79
2023/07/24 07:01:11;;;;;;;7.22;4.55;;;;;;;28.25;50.85;98965.41;4894955;29;20538;-79
2023/07/24 07:03:36;;;;;;;10.02;5.72;;;;;;;28.24;50.77;98969.09;4899435;29;20534;-78
2023/07/24 07:06:02;;;;;;;8.65;5.43;;;;;;;28.24;50.67;98974.47;4898128;29;20130;-78
2023/07/24 07:08:31;;;;;;;7.88;5.25;;;;;;;28.22;50.38;98961.19;4899229;29;20049;-78
2023/07/24 07:10:57;;;;;;;7.45;4.70;;;;;;;28.20;50.68;98975.72;4899493;29;20032;-79
2023/07/24 07:13:23;;;;;;;7.75;4.63;;;;;;;28.21;50.33;98969.34;4897058;29;20028;-79
2023/07/24 07:15:48;;;;;;;5.90;4.15;;;;;;;28.21;50.48;98969.34;4899411;29;20401;-78
2023/07/24 07:18:14;;;;;;;7.38;4.60;;;;;;;28.21;50.56;98974.72;4899037;29;20104;-79
2023/07/24 07:20:45;;;;;;;8.13;5.13;;;;;;;28.19;50.58;98976.72;4898678;29;20393;-78
2023/07/24 07:23:10;;;;;;;12.00;6.07;;;;;;;28.21;50.48;98969.34;4893836;29;20028;-79
2023/07/24 07:25:36;;;;;;;7.80;4.93;;;;;;;28.19;50.54;98976.72;4891880;29;20043;-81
2023/07/24 07:28:01;;;;;;;5.93;3.90;;;;;;;28.19;50.34;98976.72;4897149;29;20031;-79
2023/07/24 07:30:27;;;;;;;6.93;4.50;;;;;;;28.21;50.53;98980.09;4897339;29;20115;-79
2023/07/24 07:32:52;;;;;;;6.72;4.40;;;;;;;28.21;50.83;98974.72;4890385;29;20131;-79
2023/07/24 07:35:17;;;;;;;6.07;4.20;;;;;;;28.21;50.62;98980.09;4895392;29;20036;-79
2023/07/24 07:37:43;;;;;;;6.88;4.05;;;;;;;28.22;50.49;98971.94;4897828;29;20478;-78
2023/07/24 07:40:09;;;;;;;7.35;4.53;;;;;;;28.24;50.60;98974.47;4894956;29;20028;-76
2023/07/24 07:42:34;;;;;;;9.35;4.38;;;;;;;28.23;51.01;98972.78;4896574;29;20466;-79
2023/07/24 07:45:00;;;;;;;9.30;4.35;;;;;;;28.23;51.02;98984.34;4894428;29;20085;-79
2023/07/24 07:47:25;;;;;;;9.02;4.18;;;;;;;28.25;50.88;98984.19;4894513;29;20516;-78
2023/07/24 07:49:50;;;;;;;6.80;4.30;;;;;;;28.23;50.64;98983.50;4894103;29;20033;-82
2023/07/24 07:52:17;;;;;;;6.38;4.10;;;;;;;28.23;50.94;98984.34;4893480;29;20107;-77
2023/07/24 07:54:46;;;;;;;8.63;3.90;;;;;;;28.26;51.00;98984.03;4897025;29;20057;-78
2023/07/24 07:57:12;;;;;;;8.57;4.03;;;;;;;28.26;50.78;98993.91;4895989;29;20449;-81
2023/07/24 07:59:37;;;;;;;5.75;3.97;;;;;;;28.25;50.97;98992.25;4896834;29;20044;-73
2023/07/24 08:02:03;;;;;;;7.28;4.30;;;;;;;28.27;50.65;98992.91;4898454;29;20398;-74
2023/07/24 08:04:28;;;;;;;7.80;4.50;;;;;;;28.24;50.64;98996.75;4898289;29;20111;-74
2023/07/24 08:06:54;;;;;;;8.05;4.00;;;;;;;28.26;50.49;98997.47;4898298;29;20029;-74
2023/07/24 08:09:21;;;;;;;8.25;4.05;;;;;;;28.26;50.63;99000.16;4898218;29;20472;-74
2023/07/24 08:11:47;;;;;;;6.30;4.38;;;;;;;28.25;50.40;98998.47;4897717;29;20025;-74
2023/07/24 08:14:12;;;;;;;8.27;3.85;;;;;;;28.26;50.48;98993.91;4898002;29;20032;-74
2023/07/24 08:16:38;;;;;;;7.03;4.65;;;;;;;28.26;50.40;98991.25;4898072;29;20450;-74
2023/07/24 08:19:03;;;;;;;6.25;4.25;;;;;;;28.24;50.58;98994.06;4897966;29;20033;-74
2023/07/24 08:21:29;;;;;;;6.50;4.07;;;;;;;28.23;50.46;98996.94;4897987;29;20080;-74
2023/07/24 08:23:54;;;;;;;6.47;4.65;;;;;;;28.26;50.48;98993.91;4897949;29;20028;-74
2023/07/24 08:26:19;;;;;;;5.18;3.55;;;;;;;28.26;50.27;99004.66;4897538;29;20080;-74
2023/07/24 08:28:45;;;;;;;7.40;4.03;;;;;;;28.27;50.64;98998.28;4897828;29;20032;-74
2023/07/24 08:31:10;;;;;;;5.85;3.78;;;;;;;28.28;50.22;99003.50;4897500;29;20028;-74
2023/07/24 08:33:36;;;;;;;8.27;4.35;;;;;;;28.26;50.25;99007.34;4897117;29;20119;-73
2023/07/24 08:36:04;;;;;;;5.40;4.05;;;;;;;28.26;50.27;98996.59;4897972;29;20392;-74
2023/07/24 08:38:29;;;;;;;5.75;4.20;;;;;;;28.27;50.51;99000.97;4897787;29;20035;-74
2023/07/24 08:41:02;;;;;;;6.45;4.25;;;;;;;28.26;50.20;99000.16;4896060;29;20024;-73
2023/07/24 08:43:29;;;;;;;5.85;3.78;;;;;;;28.26;50.59;99000.16;4893662;29;20080;-74
2023/07/24 08:45:55;;;;;;;6.43;4.47;;;;;;;28.25;50.54;98998.47;4897581;29;20164;-74
2023/07/24 08:48:22;;;;;;;6.22;3.85;;;;;;;28.27;50.51;99006.34;4897509;29;20025;-73
2023/07/24 08:50:51;;;;;;;6.10;3.70;;;;;;;28.27;50.29;99006.34;4897318;29;20032;-73
2023/07/24 08:53:19;;;;;;;5.50;3.67;;;;;;;28.28;50.18;99010.72;4897281;29;20029;-75
2023/07/24 08:55:47;;;;;;;5.20;3.85;;;;;;;28.28;50.33;99008.03;4897070;29;20027;-74
2023/07/24 08:58:12;;;;;;;6.13;3.90;;;;;;;28.28;50.00;99005.38;4897171;29;20470;-74
2023/07/24 09:00:38;;;;;;;6.68;4.47;;;;;;;28.28;50.14;99005.38;4897464;29;20031;-73
2023/07/24 09:03:04;;;;;;;5.82;4.13;;;;;;;28.27;50.23;99003.66;4896985;29;20040;-74
2023/07/24 09:05:29;;;;;;;5.80;4.13;;;;;;;28.28;49.91;99000.00;4897076;29;20025;-74
2023/07/24 09:07:54;;;;;;;6.57;3.75;;;;;;;28.26;50.19;99004.66;4897287;29;20077;-74
2023/07/24 09:10:26;;;;;;;4.68;3.42;;;;;;;28.28;50.26;98998.13;4896662;29;20143;-74
2023/07/24 09:12:52;;;;;;;5.40;4.20;;;;;;;28.27;50.03;99003.66;4897028;29;20024;-74
2023/07/24 09:15:18;;;;;;;5.55;3.75;;;;;;;28.28;50.32;99008.03;4895719;29;20036;-74
2023/07/24 09:17:53;;;;;;;7.03;4.20;;;;;;;28.28;49.79;99008.03;4897141;29;20405;-74
2023/07/24 09:20:19;;;;;;;6.93;4.00;;;;;;;28.27;50.29;99001.81;4893627;29;20482;-73
2023/07/24 09:22:53;;;;;;;6.13;3.20;;;;;;;28.28;50.26;99008.03;4896789;29;20520;-74
2023/07/24 09:25:29;;;;;;;6.57;3.80;;;;;;;28.28;50.13;99002.69;4896554;29;20024;-74
2023/07/24 09:27:54;;;;;;;4.78;3.65;;;;;;;28.27;49.94;99000.97;4896966;29;20499;-74
2023/07/24 09:30:23;;;;;;;5.88;3.67;;;;;;;28.28;49.97;99000.00;4895629;29;20025;-74
2023/07/24 09:32:54;;;;;;;5.70;3.45;;;;;;;28.28;50.07;99008.03;4896859;29;20032;-74
2023/07/24 09:35:27;;;;;;;5.88;3.70;;;;;;;28.29;49.89;99004.38;4893473;29;20028;-74
2023/07/24 09:38:05;;;;;;;5.80;3.45;;;;;;;28.29;49.85;99004.38;4895761;29;20413;-74
2023/07/24 09:40:42;;;;;;;5.38;3.63;;;;;;;28.30;50.06;99010.56;4893301;29;20036;-74
2023/07/24 09:43:21;;;;;;;5.18;3.33;;;;;;;28.27;49.94;99012.56;4893346;29;20029;-74
2023/07/24 09:45:48;;;;;;;5.50;3.38;;;;;;;28.29;50.07;99015.09;4894259;29;20028;-75
2023/07/24 09:48:15;;;;;;;4.85;3.05;;;;;;;28.29;49.83;99015.09;4896936;29;20029;-74
2023/07/24 09:50:42;;;;;;;5.18;3.47;;;;;;;28.28;49.73;99011.56;4896127;29;20029;-74
2023/07/24 09:53:17;;;;;;;5.07;3.20;;;;;;;28.26;49.97;99010.03;4896118;29;20028;-74
2023/07/24 09:55:51;;;;;;;5.40;3.53;;;;;;;28.27;49.88;99000.97;4896069;29;20029;-75
2023/07/24 09:58:18;;;;;;;5.30;3.13;;;;;;;28.29;49.60;99001.69;4896434;29;20504;-74
2023/07/24 10:00:45;;;;;;;4.60;3.05;;;;;;;28.29;49.89;98999.00;4896429;29;20056;-74
2023/07/24 10:03:11;;;;;;;4.63;3.28;;;;;;;28.29;49.63;98999.00;4896547;29;20025;-76
2023/07/24 10:05:37;;;;;;;6.15;3.85;;;;;;;28.28;49.86;98991.94;4893547;29;20402;-76
2023/07/24 10:08:04;;;;;;;6.30;3.70;;;;;;;28.25;49.73;98993.09;4882251;29;20036;-77
2023/07/24 10:10:32;;;;;;;6.03;3.38;;;;;;;28.27;50.08;98991.09;4882562;29;20485;-78
2023/07/24 10:12:58;;;;;;;4.80;3.10;;;;;;;28.25;49.99;98984.19;4885177;29;20036;-77
2023/07/24 10:15:25;;;;;;;5.93;3.60;;;;;;;28.27;49.73;98993.78;4895819;29;20020;-77
2023/07/24 10:18:02;;;;;;;6.47;3.25;;;;;;;28.27;49.66;98991.09;4892079;29;20394;-77
2023/07/24 10:20:36;;;;;;;5.10;3.05;;;;;;;28.26;49.95;98992.09;4892999;29;20040;-77
2023/07/24 10:23:05;;;;;;;5.53;3.60;;;;;;;28.24;49.92;98985.19;4889127;29;20534;-76
2023/07/24 10:25:32;;;;;;;5.18;3.35;;;;;;;28.24;49.62;98991.38;4890442;29;20104;-78
2023/07/24 10:28:07;;;;;;;5.00;3.25;;;;;;;28.26;49.77;98988.56;4894542;29;20499;-77
2023/07/24 10:30:43;;;;;;;5.38;3.08;;;;;;;28.25;49.53;98992.25;4896080;29;20093;-77
2023/07/24 10:33:13;;;;;;;5.70;3.10;;;;;;;28.25;49.83;98998.47;4894224;29;20123;-76
2023/07/24 10:35:43;;;;;;;5.63;3.35;;;;;;;28.24;49.82;98990.56;4895860;29;20850;-77
2023/07/24 10:38:10;;;;;;;5.50;3.65;;;;;;;28.23;49.98;98995.06;4891583;29;20036;-77
2023/07/24 10:40:36;;;;;;;5.25;3.50;;;;;;;28.28;49.50;98991.94;4892184;29;20032;-76
2023/07/24 10:43:09;;;;;;;6.68;3.38;;;;;;;28.25;49.46;98997.59;4895520;29;20039;-76
2023/07/24 10:45:48;;;;;;;5.20;3.05;;;;;;;28.26;49.73;98999.28;4895851;29;20025;-77
2023/07/24 10:48:14;;;;;;;4.50;2.88;;;;;;;28.27;49.76;98998.28;4895481;29;20029;-77
2023/07/24 10:50:41;;;;;;;6.60;3.15;;;;;;;28.27;49.68;98995.59;4894165;29;20035;-78
2023/07/24 10:53:06;;;;;;;6.25;2.88;;;;;;;28.27;49.71;98995.59;4888482;29;20529;-77
2023/07/24 10:55:32;;;;;;;6.25;3.13;;;;;;;28.27;49.68;98995.59;4895613;29;20029;-77
2023/07/24 10:57:57;;;;;;;6.80;3.50;;;;;;;28.29;49.78;98996.31;4898551;29;20101;-77
2023/07/24 11:00:23;;;;;;;10.05;3.40;;;;;;;28.29;49.90;98999.00;4898558;29;20056;-77
2023/07/24 11:02:49;;;;;;;10.77;3.92;;;;;;;28.30;50.00;98995.31;4898472;29;20056;-76
2023/07/24 11:05:16;;;;;;;6.95;3.03;;;;;;;28.28;49.82;99002.69;4898878;29;20027;-77
2023/07/24 11:07:41;;;;;;;7.80;3.80;;;;;;;28.30;49.95;98995.31;4897959;29;20027;-77
2023/07/24 11:10:16;;;;;;;10.68;3.38;;;;;;;28.31;50.06;98997.00;4898636;29;20048;-76
2023/07/24 11:12:42;;;;;;;6.00;2.67;;;;;;;28.30;50.29;98984.59;4890920;29;20059;-77
2023/07/24 11:15:08;;;;;;;10.77;3.50;;;;;;;28.30;50.15;98992.63;4898299;29;20056;-77
2023/07/24 11:17:40;;;;;;;5.43;3.13;;;;;;;28.31;49.92;98986.25;4895086;29;20481;-77
2023/07/24 11:20:16;;;;;;;5.72;3.10;;;;;;;28.31;50.02;98993.47;4898503;29;20047;-77
2023/07/24 11:22:44;;;;;;;7.60;2.90;;;;;;;28.32;50.02;98982.56;4896965;29;20549;-77
2023/07/24 11:25:10;;;;;;;6.90;3.40;;;;;;;28.33;50.22;98989.63;4898017;29;20405;-77
2023/07/24 11:27:43;;;;;;;6.78;3.17;;;;;;;28.33;49.92;98995.00;4898408;29;20017;-77
2023/07/24 11:30:13;;;;;;;6.32;3.17;;;;;;;28.32;49.68;98990.63;4892478;29;20483;-76